createdAt,value
2022-08-27T00:01:27.950Z,100627.69
2022-08-27T00:06:33.485Z,100618.65
2022-08-27T00:11:40.687Z,100621.07
2022-08-27T00:16:47.799Z,100632.31
2022-08-27T00:21:53.566Z,100629.77
2022-08-27T00:26:59.662Z,100619.50
2022-08-27T00:32:05.751Z,100617.48
2022-08-27T00:37:11.494Z,100612.03
2022-08-27T00:42:17.145Z,100614.58
2022-08-27T00:47:26.040Z,100614.58
2022-08-27T00:52:51.633Z,100607.23
2022-08-27T00:58:06.099Z,100607.08
2022-08-27T01:03:11.864Z,100599.74
2022-08-27T01:08:20.614Z,100597.35
2022-08-27T01:13:58.954Z,100601.47
2022-08-27T01:18:39.532Z,100594.11
2022-08-27T01:23:55.829Z,100593.28
2022-08-27T01:29:02.011Z,100590.39
2022-08-27T01:34:08.089Z,100600.44
2022-08-27T01:39:13.651Z,100609.45
2022-08-27T01:44:21.025Z,100612.19
2022-08-27T01:49:26.747Z,100608.59
2022-08-27T01:54:34.078Z,100599.73
2022-08-27T01:59:40.124Z,100594.64
2022-08-27T02:04:46.394Z,100598.02
2022-08-27T02:09:52.365Z,100594.45
2022-08-27T02:14:58.035Z,100587.47
2022-08-27T02:20:04.536Z,100579.48
2022-08-27T02:25:13.650Z,100581.95
2022-08-27T02:30:21.354Z,100578.91
2022-08-27T02:35:27.667Z,100575.98
2022-08-27T02:40:33.551Z,100576.52
2022-08-27T02:45:39.301Z,100569.53
2022-08-27T02:50:45.586Z,100563.23
2022-08-27T02:55:52.389Z,100560.50
2022-08-27T03:00:58.160Z,100546.70
2022-08-27T03:06:04.232Z,100546.72
2022-08-27T03:11:09.899Z,100549.27
2022-08-27T03:16:17.229Z,100554.20
2022-08-27T03:21:25.820Z,100547.41
2022-08-27T03:26:32.940Z,100538.53
2022-08-27T03:31:38.679Z,100532.73
2022-08-27T03:36:44.374Z,100526.41
2022-08-27T03:41:54.872Z,100521.15
2022-08-27T03:47:00.316Z,100523.02
2022-08-27T03:52:06.085Z,100533.56
2022-08-27T03:57:11.756Z,100529.50
2022-08-27T04:02:17.320Z,100526.77
2022-08-27T04:07:22.886Z,100525.39
2022-08-27T04:12:28.449Z,100522.53
2022-08-27T04:17:34.525Z,100526.27
2022-08-27T04:22:40.407Z,100518.95
2022-08-27T04:27:45.965Z,100519.81
2022-08-27T04:32:51.867Z,100519.80
2022-08-27T04:37:57.808Z,100524.41
2022-08-27T04:43:03.373Z,100523.20
2022-08-27T04:48:09.262Z,100524.16
2022-08-27T04:53:17.257Z,100543.88
2022-08-27T04:58:24.883Z,100543.88
2022-08-27T05:03:30.543Z,100545.75
2022-08-27T05:08:36.317Z,100549.47
2022-08-27T05:13:43.829Z,100549.64
2022-08-27T05:18:50.931Z,100547.25
2022-08-27T05:23:58.943Z,100552.39
2022-08-27T05:29:06.649Z,100550.34
2022-08-27T05:34:15.444Z,100557.14
2022-08-27T05:39:19.973Z,100558.34
2022-08-27T05:44:41.987Z,100564.30
2022-08-27T05:49:33.024Z,100558.30
2022-08-27T05:54:39.902Z,100568.23
2022-08-27T06:00:03.601Z,100565.67
2022-08-27T06:05:11.051Z,100567.88
2022-08-27T06:10:17.089Z,100567.53
2022-08-27T06:15:22.858Z,100570.62
2022-08-27T06:20:28.442Z,100574.19
2022-08-27T06:25:34.189Z,100576.58
2022-08-27T06:30:40.015Z,100584.39
2022-08-27T06:35:45.976Z,100580.64
2022-08-27T06:40:54.467Z,100579.94
2022-08-27T06:46:03.356Z,100603.13
2022-08-27T06:51:17.096Z,100611.14
2022-08-27T06:56:23.689Z,100605.16
2022-08-27T07:01:37.985Z,100605.12
2022-08-27T07:06:43.584Z,100615.88
2022-08-27T07:11:49.400Z,100623.20
2022-08-27T07:16:55.542Z,100624.91
2022-08-27T07:22:01.099Z,100620.64
2022-08-27T07:27:07.152Z,100623.20
2022-08-27T07:32:13.151Z,100614.50
2022-08-27T07:37:18.715Z,100618.38
2022-08-27T07:42:42.527Z,100615.48
2022-08-27T07:47:48.687Z,100622.34
2022-08-27T07:52:54.868Z,100618.25
2022-08-27T07:58:01.163Z,100612.92
2022-08-27T08:03:06.751Z,100606.59
2022-08-27T08:08:13.017Z,100614.05
2022-08-27T08:13:20.496Z,100621.03
2022-08-27T08:18:26.815Z,100620.16
2022-08-27T08:23:34.204Z,100623.36
2022-08-27T08:28:41.602Z,100617.57
2022-08-27T08:33:49.829Z,100623.33
2022-08-27T08:38:56.108Z,100635.98
2022-08-27T08:44:05.797Z,100638.30
2022-08-27T08:49:17.474Z,100628.38
2022-08-27T08:54:27.144Z,100637.98
2022-08-27T08:59:41.931Z,100634.41
2022-08-27T09:04:47.579Z,100626.28
2022-08-27T09:10:18.260Z,100633.28
2022-08-27T09:15:29.849Z,100631.39
2022-08-27T09:20:36.637Z,100637.56
2022-08-27T09:25:45.076Z,100637.28
2022-08-27T09:30:50.604Z,100634.72
2022-08-27T09:35:56.406Z,100634.56
2022-08-27T09:41:11.007Z,100639.45
2022-08-27T09:46:22.350Z,100636.42
2022-08-27T09:51:31.128Z,100634.53
2022-08-27T09:56:39.765Z,100637.05
2022-08-27T10:02:01.193Z,100631.84
2022-08-27T10:07:20.694Z,100638.62
2022-08-27T10:12:47.342Z,100632.26
2022-08-27T10:17:58.671Z,100624.04
2022-08-27T10:23:38.826Z,100625.97
2022-08-27T10:29:04.149Z,100626.48
2022-08-27T10:34:38.295Z,100634.70
2022-08-27T10:39:48.659Z,100629.66
2022-08-27T10:45:06.345Z,100638.80
2022-08-27T10:50:41.155Z,100641.27
2022-08-27T10:55:56.365Z,100645.86
2022-08-27T11:01:21.592Z,100649.12
2022-08-27T11:06:36.149Z,100642.41
2022-08-27T11:17:04.596Z,100647.89
2022-08-27T11:22:26.701Z,100641.74
2022-08-27T11:27:34.825Z,100649.83
2022-08-27T11:33:07.153Z,100652.71
2022-08-27T11:38:34.133Z,100651.48
2022-08-27T11:43:40.939Z,100650.16
2022-08-27T11:48:49.549Z,100655.70
2022-08-27T11:54:00.631Z,100653.71
2022-08-27T11:59:30.726Z,100652.59
2022-08-27T12:04:40.135Z,100656.41
2022-08-27T12:09:54.621Z,100657.95
2022-08-27T12:15:06.192Z,100657.84
2022-08-27T12:20:29.603Z,100652.16
2022-08-27T12:25:35.268Z,100658.55
2022-08-27T12:30:43.905Z,100653.53
2022-08-27T12:35:52.707Z,100653.10
2022-08-27T12:41:00.945Z,100657.95
2022-08-27T12:46:09.897Z,100652.03
2022-08-27T12:51:21.216Z,100654.50
2022-08-27T12:56:42.241Z,100647.23
2022-08-27T13:02:17.254Z,100647.68
2022-08-27T13:07:33.023Z,100644.03
2022-08-27T13:12:38.811Z,100632.41
2022-08-27T13:17:47.922Z,100631.00
2022-08-27T13:22:56.528Z,100629.77
2022-08-27T13:28:15.250Z,100625.41
2022-08-27T13:33:28.239Z,100617.88
2022-08-27T13:38:36.841Z,100616.08
2022-08-27T13:43:45.434Z,100613.55
2022-08-27T13:48:54.128Z,100622.69
2022-08-27T13:54:16.177Z,100618.97
2022-08-27T13:59:24.964Z,100624.35
2022-08-27T14:04:42.629Z,100618.09
2022-08-27T14:10:09.888Z,100621.04
2022-08-27T14:15:36.023Z,100618.25
2022-08-27T14:20:41.598Z,100621.89
2022-08-27T14:25:48.354Z,100619.19
2022-08-27T14:30:54.259Z,100620.31
2022-08-27T14:36:01.259Z,100626.10
2022-08-27T14:41:06.928Z,100623.75
2022-08-27T14:46:16.562Z,100626.23
2022-08-27T14:51:25.320Z,100615.77
2022-08-27T14:56:32.634Z,100621.41
2022-08-27T15:01:38.761Z,100627.88
2022-08-27T15:06:44.584Z,100624.08
2022-08-27T15:11:51.486Z,100633.30
2022-08-27T15:16:57.619Z,100620.36
2022-08-27T15:22:16.969Z,100622.61
2022-08-27T15:27:23.003Z,100620.72
2022-08-27T15:32:33.529Z,100624.64
2022-08-27T15:37:39.690Z,100632.61
2022-08-27T15:42:45.610Z,100640.64
2022-08-27T15:47:51.224Z,100636.25
2022-08-27T15:53:03.744Z,100631.38
2022-08-27T15:58:10.848Z,100630.30
2022-08-27T16:03:17.839Z,100629.05
2022-08-27T16:08:23.462Z,100633.41
2022-08-27T16:13:38.084Z,100639.96
2022-08-27T16:18:44.545Z,100637.43
2022-08-27T16:23:50.868Z,100631.94
2022-08-27T16:28:56.410Z,100637.91
2022-08-27T16:34:02.499Z,100632.33
2022-08-27T16:39:08.462Z,100636.36
2022-08-27T16:44:14.053Z,100631.39
2022-08-27T16:49:37.822Z,100629.31
2022-08-27T16:54:43.476Z,100636.61
2022-08-27T16:59:49.056Z,100637.22
2022-08-27T17:04:58.430Z,100640.22
2022-08-27T17:10:05.774Z,100656.91
2022-08-27T17:15:10.524Z,100651.80
2022-08-27T17:20:19.399Z,100662.79
2022-08-27T17:25:28.825Z,100667.84
2022-08-27T17:30:32.419Z,100680.57
2022-08-27T17:35:38.749Z,100684.02
2022-08-27T17:40:52.130Z,100688.91
2022-08-27T17:45:56.875Z,100690.14
2022-08-27T17:51:02.607Z,100703.54
2022-08-27T17:56:08.490Z,100705.95
2022-08-27T18:01:15.326Z,100713.46
2022-08-27T18:06:20.941Z,100713.30
2022-08-27T18:11:27.353Z,100721.72
2022-08-27T18:16:33.545Z,100718.50
2022-08-27T18:21:46.787Z,100728.25
2022-08-27T18:26:53.839Z,100732.73
2022-08-27T18:31:59.523Z,100739.56
2022-08-27T18:37:05.123Z,100750.14
2022-08-27T18:42:12.189Z,100740.27
2022-08-27T18:47:17.746Z,100745.91
2022-08-27T18:52:24.446Z,100753.07
2022-08-27T18:57:30.553Z,100761.43
2022-08-27T19:02:36.980Z,100763.14
2022-08-27T19:07:42.950Z,100772.86
2022-08-27T19:12:48.856Z,100772.00
2022-08-27T19:17:56.941Z,100775.94
2022-08-27T19:23:02.645Z,100770.48
2022-08-27T19:28:08.715Z,100769.98
2022-08-27T19:33:14.501Z,100769.46
2022-08-27T19:38:20.667Z,100769.98
2022-08-27T19:43:26.433Z,100774.58
2022-08-27T19:48:32.409Z,100776.94
2022-08-27T19:53:38.588Z,100760.70
2022-08-27T19:58:45.688Z,100768.89
2022-08-27T20:03:51.483Z,100768.56
2022-08-27T20:08:57.444Z,100776.05
2022-08-27T20:14:03.306Z,100764.08
2022-08-27T20:19:09.401Z,100776.19
2022-08-27T20:24:14.984Z,100761.70
2022-08-27T20:29:32.729Z,100770.21
2022-08-27T20:34:29.687Z,100765.45
2022-08-27T20:39:35.252Z,100771.58
2022-08-27T20:44:41.305Z,100774.62
2022-08-27T20:49:46.962Z,100781.30
2022-08-27T20:54:52.453Z,100777.36
2022-08-27T21:00:16.230Z,100778.03
2022-08-27T21:05:22.451Z,100783.63
2022-08-27T21:10:28.062Z,100790.61
2022-08-27T21:15:33.829Z,100786.02
2022-08-27T21:20:39.825Z,100781.92
2022-08-27T21:25:45.370Z,100774.94
2022-08-27T21:30:50.826Z,100772.03
2022-08-27T21:35:56.412Z,100757.50
2022-08-27T21:41:02.172Z,100763.47
2022-08-27T21:46:08.138Z,100756.39
2022-08-27T21:51:24.442Z,100748.21
2022-08-27T21:56:24.090Z,100760.50
2022-08-27T22:01:29.814Z,100764.64
2022-08-27T22:06:35.624Z,100765.61
2022-08-27T22:11:41.900Z,100771.11
2022-08-27T22:16:49.304Z,100765.77
2022-08-27T22:21:54.874Z,100766.11
2022-08-27T22:27:01.154Z,100795.32
2022-08-27T22:32:08.460Z,100827.02
2022-08-27T22:37:14.030Z,100835.02
2022-08-27T22:42:19.694Z,100836.55
2022-08-27T22:47:25.874Z,100852.08
2022-08-27T22:52:31.510Z,100796.19
2022-08-27T22:57:37.043Z,100787.20
2022-08-27T23:02:43.240Z,100773.47
2022-08-27T23:07:49.316Z,100773.03
2022-08-27T23:12:56.593Z,100768.53
2022-08-27T23:18:02.239Z,100748.91
2022-08-27T23:23:08.205Z,100752.22
2022-08-27T23:28:15.669Z,100741.59
2022-08-27T23:33:22.184Z,100743.48
2022-08-27T23:38:28.280Z,100741.43
2022-08-27T23:43:33.865Z,100742.44
2022-08-27T23:48:39.858Z,100750.86
2022-08-27T23:53:45.587Z,100749.76
2022-08-27T23:58:51.715Z,100751.16
